createdAt,value
2023-06-29T00:02:01.717Z,3.25
2023-06-29T00:07:05.989Z,3.45
2023-06-29T00:12:11.417Z,3.38
2023-06-29T00:17:18.246Z,3.50
2023-06-29T00:22:27.361Z,3.83
2023-06-29T00:28:00.882Z,3.80
2023-06-29T00:33:10.108Z,4.15
2023-06-29T00:38:13.844Z,4.32
2023-06-29T00:43:21.461Z,4.15
2023-06-29T00:48:29.307Z,4.00
2023-06-29T00:53:34.364Z,4.18
2023-06-29T00:58:58.796Z,4.40
2023-06-29T01:04:08.071Z,4.40
2023-06-29T01:09:17.198Z,4.43
2023-06-29T01:14:22.691Z,3.80
2023-06-29T01:19:30.045Z,4.60
2023-06-29T01:24:41.864Z,4.55
2023-06-29T01:29:46.329Z,4.50
2023-06-29T01:34:49.669Z,4.40
2023-06-29T01:39:55.503Z,4.32
2023-06-29T01:44:59.163Z,4.55
2023-06-29T01:50:04.544Z,4.38
2023-06-29T01:55:11.200Z,4.50
2023-06-29T02:00:16.592Z,4.47
2023-06-29T02:05:22.049Z,4.38
2023-06-29T02:10:27.305Z,4.47
2023-06-29T02:15:31.180Z,4.55
2023-06-29T02:20:42.202Z,4.53
2023-06-29T02:25:47.613Z,4.53
2023-06-29T02:30:54.333Z,4.78
2023-06-29T02:35:58.490Z,5.10
2023-06-29T02:41:06.355Z,4.63
2023-06-29T02:46:10.311Z,5.00
2023-06-29T02:51:15.833Z,4.50
2023-06-29T02:56:35.699Z,4.57
2023-06-29T03:01:41.942Z,5.03
2023-06-29T03:06:45.254Z,5.50
2023-06-29T03:11:51.030Z,5.00
2023-06-29T03:16:56.248Z,4.80
2023-06-29T03:22:01.037Z,5.18
2023-06-29T03:27:07.962Z,5.15
2023-06-29T03:32:11.771Z,5.00
2023-06-29T03:37:27.804Z,5.47
2023-06-29T03:42:44.095Z,5.35
2023-06-29T03:47:48.144Z,5.40
2023-06-29T03:52:53.710Z,5.20
2023-06-29T03:57:59.471Z,5.25
2023-06-29T04:03:24.362Z,5.15
2023-06-29T04:08:58.282Z,5.03
2023-06-29T04:14:11.938Z,5.32
2023-06-29T04:19:17.263Z,5.15
2023-06-29T04:24:22.349Z,4.85
2023-06-29T04:29:27.245Z,5.00
2023-06-29T04:34:30.382Z,5.32
2023-06-29T04:39:33.828Z,6.93
2023-06-29T04:44:38.755Z,6.72
2023-06-29T04:49:46.014Z,4.95
2023-06-29T04:55:12.463Z,4.80
2023-06-29T05:00:28.945Z,4.47
2023-06-29T05:05:37.615Z,4.05
2023-06-29T05:10:49.594Z,4.63
2023-06-29T05:16:00.436Z,4.47
2023-06-29T05:21:06.553Z,4.50
2023-06-29T05:26:11.292Z,4.95
2023-06-29T05:31:54.463Z,4.63
2023-06-29T05:37:14.842Z,4.88
2023-06-29T05:42:24.499Z,4.50
2023-06-29T05:48:05.272Z,4.65
2023-06-29T05:53:14.389Z,4.40
2023-06-29T05:58:31.820Z,4.72
2023-06-29T06:04:04.492Z,4.70
2023-06-29T06:09:18.525Z,4.53
2023-06-29T06:14:28.852Z,4.30
2023-06-29T06:19:47.014Z,4.05
2023-06-29T06:24:52.485Z,3.43
2023-06-29T06:29:58.766Z,3.85
2023-06-29T06:35:07.794Z,4.38
2023-06-29T06:40:44.285Z,3.90
2023-06-29T06:46:00.907Z,4.03
2023-06-29T06:51:07.964Z,3.78
2023-06-29T06:56:21.850Z,4.28
2023-06-29T07:01:28.398Z,3.38
2023-06-29T07:06:35.256Z,3.75
2023-06-29T07:11:45.518Z,3.30
2023-06-29T07:16:59.008Z,3.45
2023-06-29T07:27:29.731Z,3.65
2023-06-29T07:32:37.532Z,3.17
2023-06-29T07:37:43.278Z,3.00
2023-06-29T07:42:53.609Z,3.20
2023-06-29T07:48:00.096Z,3.03
2023-06-29T07:53:06.278Z,3.42
2023-06-29T08:03:24.337Z,3.15
2023-06-29T08:08:32.065Z,3.10
2023-06-29T08:13:35.563Z,2.67
2023-06-29T08:18:42.021Z,2.47
2023-06-29T08:23:52.385Z,2.60
2023-06-29T08:28:56.293Z,2.65
2023-06-29T08:34:03.449Z,2.85
2023-06-29T08:39:12.165Z,2.47
2023-06-29T08:49:24.563Z,2.58
2023-06-29T08:54:36.452Z,2.72
2023-06-29T08:59:55.709Z,2.72
2023-06-29T09:05:15.060Z,2.80
2023-06-29T09:10:26.553Z,2.72
2023-06-29T09:15:31.621Z,2.97
2023-06-29T09:20:46.590Z,2.92
2023-06-29T09:25:59.111Z,3.10
2023-06-29T09:31:08.238Z,2.78
2023-06-29T09:36:13.460Z,2.78
2023-06-29T09:41:20.241Z,2.80
2023-06-29T09:52:13.672Z,2.80
2023-06-29T09:57:19.645Z,2.47
2023-06-29T10:02:23.672Z,3.20
2023-06-29T10:07:29.574Z,3.00
2023-06-29T10:12:35.049Z,2.70
2023-06-29T10:17:46.787Z,2.75
2023-06-29T10:22:50.304Z,2.70
2023-06-29T10:27:56.184Z,2.70
2023-06-29T10:33:00.702Z,2.58
2023-06-29T10:38:08.648Z,2.70
2023-06-29T10:43:13.374Z,2.60
2023-06-29T10:48:43.017Z,2.60
2023-06-29T10:53:46.424Z,2.70
2023-06-29T10:58:51.428Z,2.58
2023-06-29T11:03:55.257Z,2.63
2023-06-29T11:08:58.911Z,2.90
2023-06-29T11:14:06.191Z,2.50
2023-06-29T11:19:12.948Z,2.65
2023-06-29T11:24:17.260Z,2.40
2023-06-29T11:29:25.549Z,2.58
2023-06-29T11:34:31.220Z,2.38
2023-06-29T11:39:34.436Z,2.90
2023-06-29T11:44:38.936Z,2.63
2023-06-29T11:49:42.698Z,2.60
2023-06-29T11:54:46.080Z,2.88
2023-06-29T11:59:50.974Z,2.60
2023-06-29T12:05:03.259Z,2.70
2023-06-29T12:10:09.069Z,2.70
2023-06-29T12:15:17.835Z,2.70
2023-06-29T12:20:22.591Z,2.47
2023-06-29T12:25:26.071Z,2.78
2023-06-29T12:30:31.095Z,2.60
2023-06-29T12:35:34.805Z,2.90
2023-06-29T12:40:39.128Z,2.70
2023-06-29T12:45:45.166Z,2.75
2023-06-29T12:50:49.266Z,2.60
2023-06-29T12:55:53.278Z,2.58
2023-06-29T13:00:58.625Z,2.65
2023-06-29T13:06:02.775Z,2.67
2023-06-29T13:11:08.421Z,2.80
2023-06-29T13:16:13.704Z,2.60
2023-06-29T13:21:17.381Z,2.78
2023-06-29T13:26:20.661Z,2.97
2023-06-29T13:31:28.110Z,2.50
2023-06-29T13:36:33.269Z,2.70
2023-06-29T13:41:38.254Z,2.78
2023-06-29T13:46:47.001Z,3.00
2023-06-29T13:51:51.310Z,3.30
2023-06-29T13:56:55.327Z,3.13
2023-06-29T14:02:00.457Z,3.20
2023-06-29T14:07:03.956Z,3.50
2023-06-29T14:12:08.688Z,3.67
2023-06-29T14:17:16.148Z,4.07
2023-06-29T14:22:19.256Z,4.13
2023-06-29T14:27:22.515Z,4.20
2023-06-29T14:32:28.612Z,3.85
2023-06-29T14:37:32.565Z,3.97
2023-06-29T14:42:35.644Z,3.47
2023-06-29T14:47:40.968Z,3.80
2023-06-29T14:52:48.127Z,3.70
2023-06-29T14:57:51.835Z,4.45
2023-06-29T15:02:57.068Z,4.13
2023-06-29T15:08:01.085Z,4.30
2023-06-29T15:13:05.532Z,4.35
2023-06-29T15:18:10.349Z,4.70
2023-06-29T15:23:13.864Z,5.65
2023-06-29T15:28:17.639Z,5.43
2023-06-29T15:33:25.075Z,5.20
2023-06-29T15:38:30.049Z,5.43
2023-06-29T15:43:34.414Z,5.43
2023-06-29T15:48:47.311Z,4.82
2023-06-29T15:53:52.860Z,5.28
2023-06-29T15:58:57.010Z,5.30
2023-06-29T16:04:01.465Z,5.32
2023-06-29T16:09:05.051Z,4.97
2023-06-29T16:14:08.597Z,5.70
2023-06-29T16:19:15.930Z,5.70
2023-06-29T16:24:20.039Z,5.68
2023-06-29T16:29:25.052Z,5.70
2023-06-29T16:34:29.709Z,5.80
2023-06-29T16:39:32.912Z,6.07
2023-06-29T16:44:36.291Z,5.50
2023-06-29T16:49:42.429Z,6.20
2023-06-29T16:54:46.289Z,6.22
2023-06-29T16:59:49.845Z,6.63
2023-06-29T17:04:55.034Z,6.78
2023-06-29T17:09:58.551Z,5.47
2023-06-29T17:15:01.736Z,5.50
2023-06-29T17:20:08.288Z,4.85
2023-06-29T17:25:11.660Z,4.60
2023-06-29T17:30:15.913Z,4.68
2023-06-29T17:35:20.608Z,4.95
2023-06-29T17:40:23.671Z,5.18
2023-06-29T17:45:28.089Z,5.03
2023-06-29T17:50:32.531Z,5.25
2023-06-29T17:55:36.365Z,4.63
2023-06-29T18:00:39.588Z,5.45
2023-06-29T18:05:45.028Z,6.13
2023-06-29T18:10:48.381Z,6.40
2023-06-29T18:15:51.686Z,6.45
2023-06-29T18:20:56.308Z,7.18
2023-06-29T18:26:00.307Z,7.07
2023-06-29T18:31:03.622Z,7.13
2023-06-29T18:36:08.901Z,7.38
2023-06-29T18:41:30.938Z,7.28
2023-06-29T18:46:41.829Z,7.72
2023-06-29T18:51:46.870Z,7.97
2023-06-29T18:56:50.043Z,7.25
2023-06-29T19:01:53.344Z,7.60
2023-06-29T19:06:58.464Z,8.20
2023-06-29T19:12:02.320Z,8.52
2023-06-29T19:17:06.059Z,8.70
2023-06-29T19:22:11.240Z,8.60
2023-06-29T19:27:14.538Z,9.15
2023-06-29T19:32:17.592Z,8.80
2023-06-29T19:37:26.582Z,8.50
2023-06-29T19:42:30.339Z,8.63
2023-06-29T19:47:34.100Z,8.55
2023-06-29T19:52:38.926Z,8.98
2023-06-29T19:57:42.435Z,9.18
2023-06-29T20:02:46.502Z,9.10
2023-06-29T20:07:51.947Z,9.43
2023-06-29T20:12:55.608Z,9.52
2023-06-29T20:17:59.340Z,10.13
2023-06-29T20:23:04.214Z,11.00
2023-06-29T20:28:07.331Z,12.02
2023-06-29T20:33:10.862Z,12.18
2023-06-29T20:38:15.426Z,13.20
2023-06-29T20:43:18.763Z,11.90
2023-06-29T20:48:21.916Z,12.95
2023-06-29T20:53:26.456Z,13.63
2023-06-29T20:58:29.806Z,13.13
2023-06-29T21:03:34.528Z,13.18
2023-06-29T21:08:39.366Z,12.70
2023-06-29T21:13:43.709Z,13.15
2023-06-29T21:18:48.020Z,13.15
2023-06-29T21:24:24.556Z,14.43
2023-06-29T21:29:42.271Z,14.35
2023-06-29T21:34:48.280Z,14.43
2023-06-29T21:39:53.884Z,14.77
2023-06-29T21:44:57.593Z,14.88
2023-06-29T21:50:01.842Z,15.50
2023-06-29T21:55:09.824Z,14.60
2023-06-29T22:00:14.429Z,14.83
2023-06-29T22:05:18.460Z,13.45
2023-06-29T22:10:28.266Z,14.25
2023-06-29T22:15:38.434Z,14.43
2023-06-29T22:20:43.256Z,14.38
2023-06-29T22:25:48.202Z,14.40
2023-06-29T22:30:55.055Z,14.98
2023-06-29T22:36:00.627Z,13.80
2023-06-29T22:41:08.501Z,14.65
2023-06-29T22:46:12.294Z,14.30
2023-06-29T22:51:17.145Z,14.20
2023-06-29T22:56:24.969Z,15.05
2023-06-29T23:01:28.468Z,14.70
2023-06-29T23:06:32.762Z,14.77
2023-06-29T23:11:37.924Z,14.43
2023-06-29T23:16:41.593Z,13.00
2023-06-29T23:21:45.468Z,14.25
2023-06-29T23:26:50.736Z,14.13
2023-06-29T23:31:54.767Z,13.80
2023-06-29T23:36:58.858Z,14.15
2023-06-29T23:42:05.168Z,14.63
2023-06-29T23:47:10.570Z,14.35
2023-06-29T23:52:15.370Z,14.77
2023-06-29T23:57:20.527Z,14.48
